sensor_id;sensor_type;location;lat;lon;timestamp;P1;durP1;ratioP1;P2;durP2;ratioP2
23898;SDS011;20544;50.018;20.010;2023-03-01T00:02:22;51.58;;;32.78;;
23898;SDS011;20544;50.018;20.010;2023-03-01T00:05:45;52.68;;;31.60;;
23898;SDS011;20544;50.018;20.010;2023-03-01T00:09:02;53.15;;;32.65;;
23898;SDS011;20544;50.018;20.010;2023-03-01T00:15:39;53.35;;;32.78;;
23898;SDS011;20544;50.018;20.010;2023-03-01T00:18:56;51.85;;;32.05;;
23898;SDS011;20544;50.018;20.010;2023-03-01T00:22:14;51.43;;;31.90;;
23898;SDS011;20544;50.018;20.010;2023-03-01T00:25:31;55.65;;;33.33;;
23898;SDS011;20544;50.018;20.010;2023-03-01T00:28:47;58.45;;;34.55;;
23898;SDS011;20544;50.018;20.010;2023-03-01T00:32:05;54.55;;;33.90;;
23898;SDS011;20544;50.018;20.010;2023-03-01T00:35:21;56.55;;;34.80;;
23898;SDS011;20544;50.018;20.010;2023-03-01T00:38:39;55.18;;;33.70;;
23898;SDS011;20544;50.018;20.010;2023-03-01T00:45:13;57.03;;;33.70;;
23898;SDS011;20544;50.018;20.010;2023-03-01T00:48:30;55.28;;;34.53;;
23898;SDS011;20544;50.018;20.010;2023-03-01T00:51:47;57.55;;;36.23;;
23898;SDS011;20544;50.018;20.010;2023-03-01T00:55:03;54.78;;;34.83;;
23898;SDS011;20544;50.018;20.010;2023-03-01T01:01:37;56.55;;;35.23;;
23898;SDS011;20544;50.018;20.010;2023-03-01T01:04:54;58.73;;;34.63;;
23898;SDS011;20544;50.018;20.010;2023-03-01T01:08:11;57.28;;;36.43;;
23898;SDS011;20544;50.018;20.010;2023-03-01T01:14:43;65.90;;;39.93;;
23898;SDS011;20544;50.018;20.010;2023-03-01T01:17:59;66.55;;;42.95;;
23898;SDS011;20544;50.018;20.010;2023-03-01T01:21:16;60.63;;;38.85;;
23898;SDS011;20544;50.018;20.010;2023-03-01T01:24:35;64.18;;;40.00;;
23898;SDS011;20544;50.018;20.010;2023-03-01T01:27:52;61.95;;;38.50;;
23898;SDS011;20544;50.018;20.010;2023-03-01T01:31:08;63.88;;;40.98;;
23898;SDS011;20544;50.018;20.010;2023-03-01T01:34:25;65.73;;;41.38;;
23898;SDS011;20544;50.018;20.010;2023-03-01T01:37:42;68.83;;;43.08;;
23898;SDS011;20544;50.018;20.010;2023-03-01T01:40:58;66.48;;;42.53;;
23898;SDS011;20544;50.018;20.010;2023-03-01T01:44:17;67.98;;;42.85;;
23898;SDS011;20544;50.018;20.010;2023-03-01T01:47:36;69.20;;;43.15;;
23898;SDS011;20544;50.018;20.010;2023-03-01T01:50:56;65.60;;;41.73;;
23898;SDS011;20544;50.018;20.010;2023-03-01T02:00:46;73.18;;;44.45;;
23898;SDS011;20544;50.018;20.010;2023-03-01T02:04:04;70.98;;;44.15;;
23898;SDS011;20544;50.018;20.010;2023-03-01T02:07:21;70.25;;;42.68;;
23898;SDS011;20544;50.018;20.010;2023-03-01T02:10:39;72.73;;;44.18;;
23898;SDS011;20544;50.018;20.010;2023-03-01T02:13:56;74.63;;;46.45;;
23898;SDS011;20544;50.018;20.010;2023-03-01T02:17:14;75.20;;;45.88;;
23898;SDS011;20544;50.018;20.010;2023-03-01T02:20:33;70.43;;;44.93;;
23898;SDS011;20544;50.018;20.010;2023-03-01T02:23:55;78.70;;;48.80;;
23898;SDS011;20544;50.018;20.010;2023-03-01T02:33:48;84.28;;;50.10;;
23898;SDS011;20544;50.018;20.010;2023-03-01T02:37:08;73.05;;;46.50;;
23898;SDS011;20544;50.018;20.010;2023-03-01T02:40:29;84.75;;;48.73;;
23898;SDS011;20544;50.018;20.010;2023-03-01T02:43:48;77.03;;;47.33;;
23898;SDS011;20544;50.018;20.010;2023-03-01T02:47:07;81.00;;;49.63;;
23898;SDS011;20544;50.018;20.010;2023-03-01T02:50:41;79.50;;;49.18;;
23898;SDS011;20544;50.018;20.010;2023-03-01T02:54:06;81.13;;;50.60;;
23898;SDS011;20544;50.018;20.010;2023-03-01T02:57:30;84.35;;;51.30;;
23898;SDS011;20544;50.018;20.010;2023-03-01T03:00:50;85.05;;;53.18;;
23898;SDS011;20544;50.018;20.010;2023-03-01T03:04:09;87.53;;;52.70;;
23898;SDS011;20544;50.018;20.010;2023-03-01T03:07:28;92.83;;;54.23;;
23898;SDS011;20544;50.018;20.010;2023-03-01T03:10:45;90.50;;;53.23;;
23898;SDS011;20544;50.018;20.010;2023-03-01T03:14:01;89.60;;;54.28;;
23898;SDS011;20544;50.018;20.010;2023-03-01T03:17:21;91.10;;;55.13;;
23898;SDS011;20544;50.018;20.010;2023-03-01T03:20:38;94.18;;;54.95;;
23898;SDS011;20544;50.018;20.010;2023-03-01T03:23:58;94.18;;;56.25;;
23898;SDS011;20544;50.018;20.010;2023-03-01T03:27:14;96.50;;;57.28;;
23898;SDS011;20544;50.018;20.010;2023-03-01T03:30:31;95.75;;;58.03;;
23898;SDS011;20544;50.018;20.010;2023-03-01T03:33:48;90.83;;;55.95;;
23898;SDS011;20544;50.018;20.010;2023-03-01T03:37:05;86.93;;;54.60;;
23898;SDS011;20544;50.018;20.010;2023-03-01T03:40:23;92.20;;;57.38;;
23898;SDS011;20544;50.018;20.010;2023-03-01T03:43:42;89.60;;;53.95;;
23898;SDS011;20544;50.018;20.010;2023-03-01T03:46:59;85.13;;;51.20;;
23898;SDS011;20544;50.018;20.010;2023-03-01T03:50:16;81.98;;;51.23;;
23898;SDS011;20544;50.018;20.010;2023-03-01T03:53:32;88.42;;;53.53;;
23898;SDS011;20544;50.018;20.010;2023-03-01T03:56:49;88.80;;;53.58;;
23898;SDS011;20544;50.018;20.010;2023-03-01T04:00:06;93.00;;;53.60;;
23898;SDS011;20544;50.018;20.010;2023-03-01T04:03:27;83.15;;;51.58;;
23898;SDS011;20544;50.018;20.010;2023-03-01T04:06:44;82.63;;;48.93;;
23898;SDS011;20544;50.018;20.010;2023-03-01T04:10:01;84.20;;;50.38;;
23898;SDS011;20544;50.018;20.010;2023-03-01T04:13:19;84.00;;;50.23;;
23898;SDS011;20544;50.018;20.010;2023-03-01T04:16:36;90.13;;;53.40;;
23898;SDS011;20544;50.018;20.010;2023-03-01T04:19:52;82.30;;;50.75;;
23898;SDS011;20544;50.018;20.010;2023-03-01T04:23:11;89.48;;;53.93;;
23898;SDS011;20544;50.018;20.010;2023-03-01T04:26:29;87.78;;;53.28;;
23898;SDS011;20544;50.018;20.010;2023-03-01T04:29:46;82.08;;;50.20;;
23898;SDS011;20544;50.018;20.010;2023-03-01T04:33:03;83.90;;;49.23;;
23898;SDS011;20544;50.018;20.010;2023-03-01T04:36:21;88.50;;;52.30;;
23898;SDS011;20544;50.018;20.010;2023-03-01T04:39:42;94.25;;;51.40;;
23898;SDS011;20544;50.018;20.010;2023-03-01T04:42:58;92.43;;;50.93;;
23898;SDS011;20544;50.018;20.010;2023-03-01T04:46:15;88.20;;;51.93;;
23898;SDS011;20544;50.018;20.010;2023-03-01T04:49:33;87.55;;;52.45;;
23898;SDS011;20544;50.018;20.010;2023-03-01T04:52:49;85.98;;;50.03;;
23898;SDS011;20544;50.018;20.010;2023-03-01T04:56:08;80.60;;;51.13;;
23898;SDS011;20544;50.018;20.010;2023-03-01T04:59:27;91.53;;;53.70;;
23898;SDS011;20544;50.018;20.010;2023-03-01T05:02:43;86.25;;;51.18;;
23898;SDS011;20544;50.018;20.010;2023-03-01T05:06:05;88.97;;;52.83;;
23898;SDS011;20544;50.018;20.010;2023-03-01T05:09:22;89.05;;;54.35;;
23898;SDS011;20544;50.018;20.010;2023-03-01T05:12:38;88.83;;;53.90;;
23898;SDS011;20544;50.018;20.010;2023-03-01T05:15:55;90.05;;;52.93;;
23898;SDS011;20544;50.018;20.010;2023-03-01T05:19:16;83.65;;;53.68;;
23898;SDS011;20544;50.018;20.010;2023-03-01T05:22:34;92.05;;;54.38;;
23898;SDS011;20544;50.018;20.010;2023-03-01T05:25:50;92.68;;;55.13;;
23898;SDS011;20544;50.018;20.010;2023-03-01T05:29:08;90.33;;;53.68;;
23898;SDS011;20544;50.018;20.010;2023-03-01T05:32:24;83.28;;;50.50;;
23898;SDS011;20544;50.018;20.010;2023-03-01T05:35:42;88.23;;;52.33;;
23898;SDS011;20544;50.018;20.010;2023-03-01T05:39:00;84.93;;;51.27;;
23898;SDS011;20544;50.018;20.010;2023-03-01T05:42:16;88.28;;;51.18;;
23898;SDS011;20544;50.018;20.010;2023-03-01T05:45:32;87.85;;;53.00;;
23898;SDS011;20544;50.018;20.010;2023-03-01T05:48:50;88.75;;;54.38;;
23898;SDS011;20544;50.018;20.010;2023-03-01T05:52:07;88.95;;;53.15;;
23898;SDS011;20544;50.018;20.010;2023-03-01T05:55:23;91.75;;;53.20;;
23898;SDS011;20544;50.018;20.010;2023-03-01T05:58:43;86.43;;;53.25;;
23898;SDS011;20544;50.018;20.010;2023-03-01T06:01:59;90.25;;;53.55;;
23898;SDS011;20544;50.018;20.010;2023-03-01T06:05:15;88.58;;;55.30;;
23898;SDS011;20544;50.018;20.010;2023-03-01T06:08:32;89.38;;;55.28;;
23898;SDS011;20544;50.018;20.010;2023-03-01T06:11:51;92.15;;;55.33;;
23898;SDS011;20544;50.018;20.010;2023-03-01T06:15:08;86.43;;;52.58;;
23898;SDS011;20544;50.018;20.010;2023-03-01T06:21:40;85.98;;;53.50;;
23898;SDS011;20544;50.018;20.010;2023-03-01T06:24:56;89.05;;;55.85;;
23898;SDS011;20544;50.018;20.010;2023-03-01T06:28:13;90.58;;;56.35;;
23898;SDS011;20544;50.018;20.010;2023-03-01T06:31:29;84.88;;;53.53;;
23898;SDS011;20544;50.018;20.010;2023-03-01T06:34:45;86.80;;;54.03;;
23898;SDS011;20544;50.018;20.010;2023-03-01T06:38:03;89.25;;;53.58;;
23898;SDS011;20544;50.018;20.010;2023-03-01T06:41:21;91.08;;;53.85;;
23898;SDS011;20544;50.018;20.010;2023-03-01T06:44:38;88.78;;;52.33;;
23898;SDS011;20544;50.018;20.010;2023-03-01T06:48:02;83.45;;;49.95;;
23898;SDS011;20544;50.018;20.010;2023-03-01T06:51:19;87.28;;;53.23;;
23898;SDS011;20544;50.018;20.010;2023-03-01T06:54:36;87.03;;;52.95;;
23898;SDS011;20544;50.018;20.010;2023-03-01T06:57:55;89.23;;;51.95;;
23898;SDS011;20544;50.018;20.010;2023-03-01T07:01:12;84.88;;;51.08;;
23898;SDS011;20544;50.018;20.010;2023-03-01T07:04:28;84.50;;;50.30;;
23898;SDS011;20544;50.018;20.010;2023-03-01T07:07:44;84.60;;;48.38;;
23898;SDS011;20544;50.018;20.010;2023-03-01T07:11:01;84.55;;;50.65;;
23898;SDS011;20544;50.018;20.010;2023-03-01T07:14:18;75.58;;;48.53;;
23898;SDS011;20544;50.018;20.010;2023-03-01T07:17:35;77.95;;;48.90;;
23898;SDS011;20544;50.018;20.010;2023-03-01T07:20:53;77.00;;;48.20;;
23898;SDS011;20544;50.018;20.010;2023-03-01T07:24:10;81.20;;;51.10;;
23898;SDS011;20544;50.018;20.010;2023-03-01T07:27:28;79.38;;;50.53;;
23898;SDS011;20544;50.018;20.010;2023-03-01T07:30:44;74.35;;;50.95;;
23898;SDS011;20544;50.018;20.010;2023-03-01T07:34:01;76.60;;;49.40;;
23898;SDS011;20544;50.018;20.010;2023-03-01T07:37:21;82.68;;;51.93;;
23898;SDS011;20544;50.018;20.010;2023-03-01T07:40:37;76.25;;;49.50;;
23898;SDS011;20544;50.018;20.010;2023-03-01T07:43:53;74.28;;;47.48;;
23898;SDS011;20544;50.018;20.010;2023-03-01T07:47:10;72.73;;;49.90;;
23898;SDS011;20544;50.018;20.010;2023-03-01T07:50:26;70.40;;;46.85;;
23898;SDS011;20544;50.018;20.010;2023-03-01T07:53:44;71.80;;;48.28;;
23898;SDS011;20544;50.018;20.010;2023-03-01T07:57:01;74.45;;;50.75;;
23898;SDS011;20544;50.018;20.010;2023-03-01T08:00:17;69.90;;;49.18;;
23898;SDS011;20544;50.018;20.010;2023-03-01T08:03:36;73.28;;;49.13;;
23898;SDS011;20544;50.018;20.010;2023-03-01T08:06:53;76.75;;;48.75;;
23898;SDS011;20544;50.018;20.010;2023-03-01T08:10:11;87.65;;;51.15;;
23898;SDS011;20544;50.018;20.010;2023-03-01T08:16:45;89.33;;;52.70;;
23898;SDS011;20544;50.018;20.010;2023-03-01T08:20:05;96.88;;;53.95;;
23898;SDS011;20544;50.018;20.010;2023-03-01T08:23:25;79.25;;;49.25;;
23898;SDS011;20544;50.018;20.010;2023-03-01T08:27:04;87.75;;;51.03;;
23898;SDS011;20544;50.018;20.010;2023-03-01T08:30:34;73.13;;;45.90;;
23898;SDS011;20544;50.018;20.010;2023-03-01T08:33:52;71.33;;;46.45;;
23898;SDS011;20544;50.018;20.010;2023-03-01T08:37:11;73.18;;;47.73;;
23898;SDS011;20544;50.018;20.010;2023-03-01T08:40:27;83.48;;;48.48;;
23898;SDS011;20544;50.018;20.010;2023-03-01T08:46:59;77.58;;;47.55;;
23898;SDS011;20544;50.018;20.010;2023-03-01T08:50:15;71.68;;;44.58;;
23898;SDS011;20544;50.018;20.010;2023-03-01T08:53:37;76.18;;;45.75;;
23898;SDS011;20544;50.018;20.010;2023-03-01T08:56:53;70.43;;;44.05;;
23898;SDS011;20544;50.018;20.010;2023-03-01T09:00:11;64.25;;;42.50;;
23898;SDS011;20544;50.018;20.010;2023-03-01T09:03:28;57.20;;;38.27;;
23898;SDS011;20544;50.018;20.010;2023-03-01T09:06:45;61.85;;;38.65;;
23898;SDS011;20544;50.018;20.010;2023-03-01T09:10:01;58.25;;;37.88;;
23898;SDS011;20544;50.018;20.010;2023-03-01T09:13:19;56.18;;;35.43;;
23898;SDS011;20544;50.018;20.010;2023-03-01T09:16:38;48.53;;;27.77;;
23898;SDS011;20544;50.018;20.010;2023-03-01T09:19:59;65.70;;;41.55;;
23898;SDS011;20544;50.018;20.010;2023-03-01T09:23:17;44.13;;;26.75;;
23898;SDS011;20544;50.018;20.010;2023-03-01T09:26:33;37.90;;;22.50;;
23898;SDS011;20544;50.018;20.010;2023-03-01T09:29:49;33.63;;;21.25;;
23898;SDS011;20544;50.018;20.010;2023-03-01T09:33:06;39.38;;;24.45;;
23898;SDS011;20544;50.018;20.010;2023-03-01T09:36:25;37.58;;;24.33;;
23898;SDS011;20544;50.018;20.010;2023-03-01T09:39:41;43.68;;;27.18;;
23898;SDS011;20544;50.018;20.010;2023-03-01T09:43:01;46.55;;;27.45;;
23898;SDS011;20544;50.018;20.010;2023-03-01T09:46:20;41.98;;;26.75;;
23898;SDS011;20544;50.018;20.010;2023-03-01T09:49:40;37.68;;;23.45;;
23898;SDS011;20544;50.018;20.010;2023-03-01T09:53:02;42.20;;;27.48;;
23898;SDS011;20544;50.018;20.010;2023-03-01T09:56:24;41.55;;;24.18;;
23898;SDS011;20544;50.018;20.010;2023-03-01T10:03:39;37.95;;;24.30;;
23898;SDS011;20544;50.018;20.010;2023-03-01T10:07:02;34.93;;;21.43;;
23898;SDS011;20544;50.018;20.010;2023-03-01T10:10:34;34.23;;;21.28;;
23898;SDS011;20544;50.018;20.010;2023-03-01T10:13:56;32.13;;;21.35;;
23898;SDS011;20544;50.018;20.010;2023-03-01T10:17:19;32.43;;;21.55;;
23898;SDS011;20544;50.018;20.010;2023-03-01T10:20:45;32.83;;;21.38;;
23898;SDS011;20544;50.018;20.010;2023-03-01T10:24:10;34.80;;;22.25;;
23898;SDS011;20544;50.018;20.010;2023-03-01T10:27:41;31.65;;;22.13;;
23898;SDS011;20544;50.018;20.010;2023-03-01T10:30:55;33.48;;;22.58;;
23898;SDS011;20544;50.018;20.010;2023-03-01T10:34:20;30.08;;;19.63;;
23898;SDS011;20544;50.018;20.010;2023-03-01T10:37:47;28.28;;;19.35;;
23898;SDS011;20544;50.018;20.010;2023-03-01T10:41:29;25.98;;;18.45;;
23898;SDS011;20544;50.018;20.010;2023-03-01T10:48:06;21.60;;;15.73;;
23898;SDS011;20544;50.018;20.010;2023-03-01T10:51:29;28.03;;;18.48;;
23898;SDS011;20544;50.018;20.010;2023-03-01T10:54:57;33.65;;;21.55;;
23898;SDS011;20544;50.018;20.010;2023-03-01T10:58:20;31.43;;;22.53;;
23898;SDS011;20544;50.018;20.010;2023-03-01T11:01:49;36.23;;;25.08;;
23898;SDS011;20544;50.018;20.010;2023-03-01T11:05:27;38.85;;;24.75;;
23898;SDS011;20544;50.018;20.010;2023-03-01T11:08:45;38.03;;;23.70;;
23898;SDS011;20544;50.018;20.010;2023-03-01T11:12:04;39.53;;;26.93;;
23898;SDS011;20544;50.018;20.010;2023-03-01T11:15:28;231.40;;;173.50;;
23898;SDS011;20544;50.018;20.010;2023-03-01T11:18:45;88.45;;;54.28;;
23898;SDS011;20544;50.018;20.010;2023-03-01T11:22:14;45.15;;;29.35;;
23898;SDS011;20544;50.018;20.010;2023-03-01T11:25:36;39.25;;;25.93;;
23898;SDS011;20544;50.018;20.010;2023-03-01T11:32:14;39.78;;;25.48;;
23898;SDS011;20544;50.018;20.010;2023-03-01T11:35:32;37.48;;;24.73;;
23898;SDS011;20544;50.018;20.010;2023-03-01T11:38:54;38.80;;;24.78;;
23898;SDS011;20544;50.018;20.010;2023-03-01T11:42:17;39.68;;;23.45;;
23898;SDS011;20544;50.018;20.010;2023-03-01T11:45:47;37.95;;;24.43;;
23898;SDS011;20544;50.018;20.010;2023-03-01T11:49:10;39.10;;;24.45;;
23898;SDS011;20544;50.018;20.010;2023-03-01T11:56:09;34.10;;;23.10;;
23898;SDS011;20544;50.018;20.010;2023-03-01T11:59:50;31.25;;;22.38;;
23898;SDS011;20544;50.018;20.010;2023-03-01T12:03:25;33.65;;;22.38;;
23898;SDS011;20544;50.018;20.010;2023-03-01T12:06:54;32.05;;;22.15;;
23898;SDS011;20544;50.018;20.010;2023-03-01T12:10:22;29.98;;;21.83;;
23898;SDS011;20544;50.018;20.010;2023-03-01T12:20:21;36.38;;;22.85;;
23898;SDS011;20544;50.018;20.010;2023-03-01T12:27:31;35.18;;;23.48;;
23898;SDS011;20544;50.018;20.010;2023-03-01T12:31:08;35.88;;;23.68;;
23898;SDS011;20544;50.018;20.010;2023-03-01T12:38:59;33.20;;;22.63;;
23898;SDS011;20544;50.018;20.010;2023-03-01T12:42:28;34.25;;;21.30;;
23898;SDS011;20544;50.018;20.010;2023-03-01T12:49:07;35.30;;;24.83;;
23898;SDS011;20544;50.018;20.010;2023-03-01T12:52:28;37.88;;;24.10;;
23898;SDS011;20544;50.018;20.010;2023-03-01T12:55:50;34.75;;;23.08;;
23898;SDS011;20544;50.018;20.010;2023-03-01T12:59:13;32.88;;;22.50;;
23898;SDS011;20544;50.018;20.010;2023-03-01T13:02:37;38.68;;;23.60;;
23898;SDS011;20544;50.018;20.010;2023-03-01T13:06:04;35.03;;;22.60;;
23898;SDS011;20544;50.018;20.010;2023-03-01T13:09:27;34.83;;;23.00;;
23898;SDS011;20544;50.018;20.010;2023-03-01T13:13:00;33.80;;;21.88;;
23898;SDS011;20544;50.018;20.010;2023-03-01T13:16:42;35.63;;;22.40;;
23898;SDS011;20544;50.018;20.010;2023-03-01T13:20:01;32.45;;;21.18;;
23898;SDS011;20544;50.018;20.010;2023-03-01T13:23:29;34.18;;;21.63;;
23898;SDS011;20544;50.018;20.010;2023-03-01T13:30:39;31.33;;;19.03;;
23898;SDS011;20544;50.018;20.010;2023-03-01T13:33:56;28.53;;;18.13;;
23898;SDS011;20544;50.018;20.010;2023-03-01T13:37:29;24.78;;;16.55;;
23898;SDS011;20544;50.018;20.010;2023-03-01T13:40:59;25.88;;;17.20;;
23898;SDS011;20544;50.018;20.010;2023-03-01T13:44:20;22.65;;;15.33;;
23898;SDS011;20544;50.018;20.010;2023-03-01T13:47:42;23.90;;;15.13;;
23898;SDS011;20544;50.018;20.010;2023-03-01T13:51:03;24.78;;;15.50;;
23898;SDS011;20544;50.018;20.010;2023-03-01T13:54:26;23.35;;;15.10;;
23898;SDS011;20544;50.018;20.010;2023-03-01T13:57:49;23.85;;;14.68;;
23898;SDS011;20544;50.018;20.010;2023-03-01T14:04:25;25.43;;;17.03;;
23898;SDS011;20544;50.018;20.010;2023-03-01T14:07:52;25.05;;;16.80;;
23898;SDS011;20544;50.018;20.010;2023-03-01T14:11:13;25.38;;;16.65;;
23898;SDS011;20544;50.018;20.010;2023-03-01T14:14:49;24.68;;;15.98;;
23898;SDS011;20544;50.018;20.010;2023-03-01T14:18:10;24.75;;;15.08;;
23898;SDS011;20544;50.018;20.010;2023-03-01T14:21:32;20.95;;;13.95;;
23898;SDS011;20544;50.018;20.010;2023-03-01T14:24:50;21.33;;;14.68;;
23898;SDS011;20544;50.018;20.010;2023-03-01T14:28:14;21.23;;;14.05;;
23898;SDS011;20544;50.018;20.010;2023-03-01T14:34:49;24.13;;;16.30;;
23898;SDS011;20544;50.018;20.010;2023-03-01T14:38:19;25.73;;;15.83;;
23898;SDS011;20544;50.018;20.010;2023-03-01T14:41:38;20.58;;;14.55;;
23898;SDS011;20544;50.018;20.010;2023-03-01T14:48:10;21.25;;;14.23;;
23898;SDS011;20544;50.018;20.010;2023-03-01T14:51:27;23.85;;;14.63;;
23898;SDS011;20544;50.018;20.010;2023-03-01T14:54:46;21.33;;;13.88;;
23898;SDS011;20544;50.018;20.010;2023-03-01T14:58:05;74.48;;;48.43;;
23898;SDS011;20544;50.018;20.010;2023-03-01T15:04:42;28.95;;;18.73;;
23898;SDS011;20544;50.018;20.010;2023-03-01T15:08:03;22.88;;;14.50;;
23898;SDS011;20544;50.018;20.010;2023-03-01T15:11:28;22.25;;;14.38;;
23898;SDS011;20544;50.018;20.010;2023-03-01T15:18:05;23.53;;;14.75;;
23898;SDS011;20544;50.018;20.010;2023-03-01T15:21:31;20.52;;;13.80;;
23898;SDS011;20544;50.018;20.010;2023-03-01T15:24:49;19.53;;;13.30;;
23898;SDS011;20544;50.018;20.010;2023-03-01T15:28:18;22.48;;;14.55;;
23898;SDS011;20544;50.018;20.010;2023-03-01T15:34:49;23.65;;;15.95;;
23898;SDS011;20544;50.018;20.010;2023-03-01T15:41:47;96.23;;;55.98;;
23898;SDS011;20544;50.018;20.010;2023-03-01T15:48:32;27.93;;;16.13;;
23898;SDS011;20544;50.018;20.010;2023-03-01T15:51:49;26.20;;;17.53;;
23898;SDS011;20544;50.018;20.010;2023-03-01T15:55:14;24.93;;;16.98;;
23898;SDS011;20544;50.018;20.010;2023-03-01T15:58:33;30.10;;;17.85;;
23898;SDS011;20544;50.018;20.010;2023-03-01T16:05:09;24.58;;;17.43;;
23898;SDS011;20544;50.018;20.010;2023-03-01T16:08:34;28.03;;;18.23;;
23898;SDS011;20544;50.018;20.010;2023-03-01T16:11:50;25.35;;;17.58;;
23898;SDS011;20544;50.018;20.010;2023-03-01T16:15:12;24.80;;;16.63;;
23898;SDS011;20544;50.018;20.010;2023-03-01T16:18:36;29.65;;;17.85;;
23898;SDS011;20544;50.018;20.010;2023-03-01T16:21:54;28.30;;;18.03;;
23898;SDS011;20544;50.018;20.010;2023-03-01T16:25:10;27.73;;;17.60;;
23898;SDS011;20544;50.018;20.010;2023-03-01T16:28:30;32.98;;;20.05;;
23898;SDS011;20544;50.018;20.010;2023-03-01T16:31:46;27.03;;;17.73;;
23898;SDS011;20544;50.018;20.010;2023-03-01T16:35:03;26.60;;;16.20;;
23898;SDS011;20544;50.018;20.010;2023-03-01T16:38:21;26.83;;;16.48;;
23898;SDS011;20544;50.018;20.010;2023-03-01T16:41:37;25.38;;;17.03;;
23898;SDS011;20544;50.018;20.010;2023-03-01T16:44:55;25.63;;;16.25;;
23898;SDS011;20544;50.018;20.010;2023-03-01T16:48:16;29.48;;;15.85;;
23898;SDS011;20544;50.018;20.010;2023-03-01T16:51:32;26.23;;;17.30;;
23898;SDS011;20544;50.018;20.010;2023-03-01T16:54:49;27.65;;;17.58;;
23898;SDS011;20544;50.018;20.010;2023-03-01T16:58:05;26.93;;;16.60;;
23898;SDS011;20544;50.018;20.010;2023-03-01T17:04:39;23.28;;;14.25;;
23898;SDS011;20544;50.018;20.010;2023-03-01T17:07:55;25.50;;;14.85;;
23898;SDS011;20544;50.018;20.010;2023-03-01T17:11:12;85.90;;;49.25;;
23898;SDS011;20544;50.018;20.010;2023-03-01T17:14:32;49.70;;;30.18;;
23898;SDS011;20544;50.018;20.010;2023-03-01T17:17:48;31.40;;;19.65;;
23898;SDS011;20544;50.018;20.010;2023-03-01T17:21:06;33.00;;;18.80;;
23898;SDS011;20544;50.018;20.010;2023-03-01T17:24:24;27.00;;;17.58;;
23898;SDS011;20544;50.018;20.010;2023-03-01T17:27:40;32.98;;;19.68;;
23898;SDS011;20544;50.018;20.010;2023-03-01T17:30:57;34.65;;;21.93;;
23898;SDS011;20544;50.018;20.010;2023-03-01T17:34:21;36.50;;;22.33;;
23898;SDS011;20544;50.018;20.010;2023-03-01T17:37:39;36.68;;;21.00;;
23898;SDS011;20544;50.018;20.010;2023-03-01T17:40:59;33.55;;;21.50;;
23898;SDS011;20544;50.018;20.010;2023-03-01T17:44:19;41.73;;;23.13;;
23898;SDS011;20544;50.018;20.010;2023-03-01T17:47:36;38.10;;;22.60;;
23898;SDS011;20544;50.018;20.010;2023-03-01T17:50:55;38.58;;;24.93;;
23898;SDS011;20544;50.018;20.010;2023-03-01T17:54:12;33.00;;;21.38;;
23898;SDS011;20544;50.018;20.010;2023-03-01T17:57:28;36.38;;;21.75;;
23898;SDS011;20544;50.018;20.010;2023-03-01T18:00:46;39.88;;;23.20;;
23898;SDS011;20544;50.018;20.010;2023-03-01T18:04:03;42.88;;;23.83;;
23898;SDS011;20544;50.018;20.010;2023-03-01T18:07:22;51.53;;;24.67;;
23898;SDS011;20544;50.018;20.010;2023-03-01T18:10:38;47.70;;;26.23;;
23898;SDS011;20544;50.018;20.010;2023-03-01T18:13:55;48.15;;;27.65;;
23898;SDS011;20544;50.018;20.010;2023-03-01T18:20:29;52.20;;;26.03;;
23898;SDS011;20544;50.018;20.010;2023-03-01T18:23:46;56.98;;;26.95;;
23898;SDS011;20544;50.018;20.010;2023-03-01T18:27:03;52.45;;;27.78;;
23898;SDS011;20544;50.018;20.010;2023-03-01T18:33:55;66.43;;;33.60;;
23898;SDS011;20544;50.018;20.010;2023-03-01T18:37:13;55.68;;;30.68;;
23898;SDS011;20544;50.018;20.010;2023-03-01T18:40:40;57.63;;;32.28;;
23898;SDS011;20544;50.018;20.010;2023-03-01T18:43:58;56.45;;;32.50;;
23898;SDS011;20544;50.018;20.010;2023-03-01T18:47:16;57.13;;;32.03;;
23898;SDS011;20544;50.018;20.010;2023-03-01T18:50:36;59.13;;;35.90;;
23898;SDS011;20544;50.018;20.010;2023-03-01T18:53:55;66.00;;;37.73;;
23898;SDS011;20544;50.018;20.010;2023-03-01T18:57:16;71.28;;;38.63;;
23898;SDS011;20544;50.018;20.010;2023-03-01T19:03:51;77.50;;;39.95;;
23898;SDS011;20544;50.018;20.010;2023-03-01T19:07:11;68.68;;;39.25;;
23898;SDS011;20544;50.018;20.010;2023-03-01T19:10:29;71.33;;;41.28;;
23898;SDS011;20544;50.018;20.010;2023-03-01T19:13:47;68.43;;;40.90;;
23898;SDS011;20544;50.018;20.010;2023-03-01T19:17:05;72.83;;;40.93;;
23898;SDS011;20544;50.018;20.010;2023-03-01T19:20:25;72.73;;;40.95;;
23898;SDS011;20544;50.018;20.010;2023-03-01T19:23:43;62.95;;;37.30;;
23898;SDS011;20544;50.018;20.010;2023-03-01T19:27:03;68.33;;;38.43;;
23898;SDS011;20544;50.018;20.010;2023-03-01T19:30:19;76.75;;;38.63;;
23898;SDS011;20544;50.018;20.010;2023-03-01T19:35:11;67.03;;;38.33;;
23898;SDS011;20544;50.018;20.010;2023-03-01T19:38:30;67.05;;;39.13;;
23898;SDS011;20544;50.018;20.010;2023-03-01T19:41:47;69.75;;;39.15;;
23898;SDS011;20544;50.018;20.010;2023-03-01T19:45:04;64.30;;;38.33;;
23898;SDS011;20544;50.018;20.010;2023-03-01T19:51:43;63.35;;;37.03;;
23898;SDS011;20544;50.018;20.010;2023-03-01T19:55:00;70.73;;;39.03;;
23898;SDS011;20544;50.018;20.010;2023-03-01T19:58:18;63.33;;;38.15;;
23898;SDS011;20544;50.018;20.010;2023-03-01T20:01:36;70.30;;;39.05;;
23898;SDS011;20544;50.018;20.010;2023-03-01T20:04:53;66.20;;;39.13;;
23898;SDS011;20544;50.018;20.010;2023-03-01T20:08:13;69.83;;;41.85;;
23898;SDS011;20544;50.018;20.010;2023-03-01T20:11:29;67.43;;;39.90;;
23898;SDS011;20544;50.018;20.010;2023-03-01T20:14:48;66.20;;;38.53;;
23898;SDS011;20544;50.018;20.010;2023-03-01T20:21:23;68.00;;;38.85;;
23898;SDS011;20544;50.018;20.010;2023-03-01T20:24:42;70.80;;;40.20;;
23898;SDS011;20544;50.018;20.010;2023-03-01T20:27:59;67.45;;;39.10;;
23898;SDS011;20544;50.018;20.010;2023-03-01T20:34:37;66.03;;;37.73;;
23898;SDS011;20544;50.018;20.010;2023-03-01T20:37:54;64.55;;;37.93;;
23898;SDS011;20544;50.018;20.010;2023-03-01T20:41:11;74.40;;;40.55;;
23898;SDS011;20544;50.018;20.010;2023-03-01T20:44:30;74.88;;;41.68;;
23898;SDS011;20544;50.018;20.010;2023-03-01T20:48:02;68.68;;;40.30;;
23898;SDS011;20544;50.018;20.010;2023-03-01T20:51:20;72.30;;;40.48;;
23898;SDS011;20544;50.018;20.010;2023-03-01T20:54:37;67.33;;;39.88;;
23898;SDS011;20544;50.018;20.010;2023-03-01T20:57:54;65.88;;;38.73;;
23898;SDS011;20544;50.018;20.010;2023-03-01T21:01:13;72.15;;;40.60;;
23898;SDS011;20544;50.018;20.010;2023-03-01T21:04:31;66.05;;;39.28;;
23898;SDS011;20544;50.018;20.010;2023-03-01T21:07:48;65.83;;;38.00;;
23898;SDS011;20544;50.018;20.010;2023-03-01T21:11:06;67.18;;;37.50;;
23898;SDS011;20544;50.018;20.010;2023-03-01T21:14:25;70.08;;;37.75;;
23898;SDS011;20544;50.018;20.010;2023-03-01T21:17:44;66.60;;;38.25;;